Time;durP1;ratioP1;P1;durP2;ratioP2;P2;SDS_P1;SDS_P2;PMS_P1;PMS_P2;Temp;Humidity;BMP_temperature;BMP_pressure;BME280_temperature;BME280_humidity;BME280_pressure;Samples;Min_cycle;Max_cycle;Signal;HPM_P1;HPM_P2
2022/10/17 00:00:41;;;;;;;12.93;3.13;;;;;;;10.31;100.00;98733.41;5008752;28;20037;-79
2022/10/17 00:03:06;;;;;;;7.93;1.80;;;;;;;10.26;100.00;98738.59;5008525;28;20041;-80
2022/10/17 00:05:32;;;;;;;11.13;3.05;;;;;;;10.28;100.00;98749.97;5007778;28;20087;-80
2022/10/17 00:07:58;;;;;;;8.27;2.45;;;;;;;10.28;100.00;98755.34;5010338;28;20030;-82
2022/10/17 00:10:23;;;;;;;8.32;2.47;;;;;;;10.27;100.00;98748.31;5009678;28;20049;-83
2022/10/17 00:12:50;;;;;;;8.77;1.95;;;;;;;10.34;100.00;98741.03;5022177;28;20034;-80
2022/10/17 00:15:18;;;;;;;9.05;2.08;;;;;;;10.47;100.00;98743.56;5005081;28;20100;-82
2022/10/17 00:17:44;;;;;;;9.32;1.83;;;;;;;10.57;100.00;98753.78;5049223;28;20040;-80
2022/10/17 00:20:10;;;;;;;8.77;1.88;;;;;;;10.43;100.00;98758.50;5005429;28;20033;-80
2022/10/17 00:22:36;;;;;;;7.47;1.55;;;;;;;10.08;100.00;98764.41;4998402;28;20526;-80
2022/10/17 00:25:02;;;;;;;11.02;2.53;;;;;;;9.79;100.00;98773.13;4981861;28;20030;-80
2022/10/17 00:27:28;;;;;;;9.82;2.55;;;;;;;9.58;100.00;98785.91;5024436;28;20475;-78
2022/10/17 00:29:58;;;;;;;7.50;2.58;;;;;;;9.59;100.00;98774.09;5005761;28;20427;-81
2022/10/17 00:32:23;;;;;;;9.77;2.35;;;;;;;9.59;100.00;98771.44;5027519;28;20044;-78
2022/10/17 00:34:49;;;;;;;11.05;2.22;;;;;;;9.51;100.00;98778.94;4994342;28;20030;-80
2022/10/17 00:37:15;;;;;;;8.80;1.38;;;;;;;9.50;100.00;98794.22;5010967;28;20067;-79
2022/10/17 00:39:40;;;;;;;5.00;1.85;;;;;;;9.44;100.00;98808.47;4995477;28;20041;-78
2022/10/17 00:42:08;;;;;;;4.53;1.00;;;;;;;9.35;100.00;98793.69;5024402;28;20087;-77
2022/10/17 00:44:34;;;;;;;4.50;1.25;;;;;;;9.37;100.00;98818.44;5019946;28;20087;-80
2022/10/17 00:47:03;;;;;;;3.47;1.02;;;;;;;9.21;100.00;98766.94;5007754;28;20025;-78
2022/10/17 00:49:32;;;;;;;0.73;0.63;;;;;;;9.31;100.00;98821.97;5003269;28;20541;-78
2022/10/17 00:52:00;;;;;;;0.60;0.60;;;;;;;9.28;100.00;98827.75;5022854;28;20526;-78
2022/10/17 00:54:39;;;;;;;1.17;0.70;;;;;;;9.21;100.00;98839.34;5011847;28;20038;-77
2022/10/17 00:57:05;;;;;;;0.77;0.55;;;;;;;9.24;100.00;98835.41;5024110;28;20034;-77
2022/10/17 00:59:33;;;;;;;0.50;0.50;;;;;;;9.16;100.00;98835.66;4996503;28;20087;-77
2022/10/17 01:02:08;;;;;;;0.77;0.75;;;;;;;9.15;100.00;98842.88;4986000;28;20046;-77
2022/10/17 01:04:38;;;;;;;2.17;0.80;;;;;;;9.07;100.00;98829.72;5025315;28;20072;-79
2022/10/17 01:07:04;;;;;;;3.33;1.70;;;;;;;9.06;100.00;98854.88;5022979;28;20418;-77
2022/10/17 01:09:29;;;;;;;0.40;0.40;;;;;;;9.06;100.00;98854.88;5006395;28;20041;-77
2022/10/17 01:12:09;;;;;;;0.45;0.40;;;;;;;8.94;100.00;98848.53;4989354;28;20449;-79
2022/10/17 01:14:49;;;;;;;0.65;0.60;;;;;;;9.03;100.00;98872.22;5024526;28;20045;-78
2022/10/17 01:17:46;;;;;;;0.77;0.52;;;;;;;9.11;100.00;98883.75;5021438;28;20077;-77
2022/10/17 01:20:40;;;;;;;8.30;0.90;;;;;;;9.10;100.00;98866.81;5019687;28;20049;-77
2022/10/17 01:23:24;;;;;;;1.27;1.20;;;;;;;9.33;100.00;98890.44;5006320;28;20141;-77
2022/10/17 01:26:05;;;;;;;1.08;0.50;;;;;;;9.44;100.00;98889.75;5029904;28;20514;-79
2022/10/17 01:28:54;;;;;;;0.80;0.70;;;;;;;9.43;100.00;98882.75;5027689;28;20029;-77
2022/10/17 01:31:48;;;;;;;0.50;0.50;;;;;;;9.40;100.00;98874.34;5015937;28;20044;-81
2022/10/17 01:34:51;;;;;;;1.73;0.95;;;;;;;9.46;100.00;98900.28;4993312;28;20126;-77
2022/10/17 01:37:40;;;;;;;0.80;0.40;;;;;;;9.42;100.00;98878.44;5020625;28;20113;-80
2022/10/17 01:40:13;;;;;;;0.50;0.50;;;;;;;9.49;100.00;98899.84;5024355;28;20034;-78
2022/10/17 01:43:04;;;;;;;0.75;0.50;;;;;;;9.60;100.00;98899.16;5002134;28;20042;-79
2022/10/17 01:45:51;;;;;;;0.40;0.40;;;;;;;9.65;100.00;98904.72;5021800;28;20124;-79
2022/10/17 01:48:21;;;;;;;0.40;0.40;;;;;;;9.62;100.00;98897.09;5007177;28;20387;-81
2022/10/17 01:50:51;;;;;;;0.60;0.60;;;;;;;9.67;100.00;98916.06;4991499;28;20025;-80
2022/10/17 01:53:45;;;;;;;3.53;0.63;;;;;;;9.69;100.00;98922.06;5001684;28;21218;-79
2022/10/17 01:56:13;;;;;;;0.50;0.50;;;;;;;9.75;100.00;98911.50;4992251;28;20045;-78
2022/10/17 01:58:43;;;;;;;0.50;0.50;;;;;;;9.73;100.00;98926.97;5021494;28;20060;-79
2022/10/17 02:01:10;;;;;;;0.55;0.55;;;;;;;9.69;100.00;98915.88;5021978;28;20048;-79
2022/10/17 02:03:37;;;;;;;0.40;0.40;;;;;;;9.73;100.00;98935.84;5023137;28;20108;-79
2022/10/17 02:06:03;;;;;;;0.45;0.45;;;;;;;9.75;100.00;98938.34;5022313;28;20072;-78
2022/10/17 02:08:40;;;;;;;0.63;0.63;;;;;;;9.90;100.00;98947.75;5021661;28;20067;-81
2022/10/17 02:11:18;;;;;;;2.03;0.85;;;;;;;9.97;100.00;98965.66;5021030;28;20029;-80
2022/10/17 02:14:41;;;;;;;0.40;0.40;;;;;;;9.91;100.00;98964.66;5021484;28;20033;-80
2022/10/17 02:17:25;;;;;;;1.67;0.70;;;;;;;9.82;100.00;98963.28;4967175;28;20042;-80
2022/10/17 02:19:53;;;;;;;1.45;0.52;;;;;;;9.85;100.00;98970.91;4995450;28;20484;-78
2022/10/17 02:22:34;;;;;;;2.10;0.63;;;;;;;9.91;100.00;98970.84;5003116;28;22359;-79
2022/10/17 02:25:08;;;;;;;1.70;0.98;;;;;;;9.80;100.00;98946.56;5016698;28;20590;-79
2022/10/17 02:27:59;;;;;;;4.03;1.23;;;;;;;10.02;100.00;98990.00;5005553;28;20033;-80
2022/10/17 02:30:27;;;;;;;8.38;1.60;;;;;;;10.05;100.00;98976.97;4990451;28;20026;-78
2022/10/17 02:33:01;;;;;;;5.40;1.17;;;;;;;9.89;100.00;98962.19;5010756;28;20033;-79
2022/10/17 02:35:30;;;;;;;1.77;0.90;;;;;;;9.95;100.00;98965.91;4989577;28;20033;-79
2022/10/17 02:37:56;;;;;;;3.50;1.10;;;;;;;9.79;100.00;98977.97;4996618;28;20037;-78
2022/10/17 02:40:23;;;;;;;7.70;1.77;;;;;;;9.84;100.00;98996.94;4991263;28;20045;-79
2022/10/17 02:42:50;;;;;;;7.63;1.83;;;;;;;9.73;100.00;99002.13;5009468;28;20048;-78
2022/10/17 02:45:16;;;;;;;8.00;1.63;;;;;;;9.73;100.00;99010.19;5006585;28;20483;-81
2022/10/17 02:47:56;;;;;;;10.05;1.63;;;;;;;9.80;100.00;99002.94;5006878;28;20064;-80
2022/10/17 02:50:27;;;;;;;5.57;1.95;;;;;;;9.54;100.00;98985.91;5010499;28;20037;-78
2022/10/17 02:53:00;;;;;;;4.70;1.95;;;;;;;9.59;100.00;98987.94;5009414;28;20120;-84
2022/10/17 02:55:53;;;;;;;9.73;2.17;;;;;;;9.66;100.00;99031.69;5011138;28;20033;-80
2022/10/17 02:58:29;;;;;;;;;;;;;;;9.65;100.00;99046.13;5044575;28;20167;-78
2022/10/17 03:00:55;;;;;;;6.00;1.48;;;;;;;9.63;100.00;99038.31;4989498;28;19921;-80
2022/10/17 03:03:24;;;;;;;9.57;2.42;;;;;;;9.71;100.00;99034.53;5024834;28;20064;-79
2022/10/17 03:05:51;;;;;;;5.90;1.70;;;;;;;9.61;100.00;99026.97;5001277;28;20049;-83
2022/10/17 03:08:17;;;;;;;5.70;2.08;;;;;;;9.59;100.00;99033.56;5038000;28;20025;-81
2022/10/17 03:10:42;;;;;;;11.50;2.10;;;;;;;9.80;100.00;99059.31;5022545;28;20086;-80
2022/10/17 03:13:08;;;;;;;15.23;2.60;;;;;;;9.72;100.00;99024.66;4996974;28;20041;-79
2022/10/17 03:15:33;;;;;;;5.30;1.95;;;;;;;9.94;100.00;99077.00;4990902;28;20052;-78
2022/10/17 03:17:59;;;;;;;11.57;2.97;;;;;;;10.01;100.00;99083.16;5029964;28;20029;-82
2022/10/17 03:20:25;;;;;;;8.50;1.92;;;;;;;10.07;100.00;99101.09;5007084;28;20036;-80
2022/10/17 03:22:50;;;;;;;10.70;1.92;;;;;;;9.89;100.00;99069.56;4996128;28;20041;-78
2022/10/17 03:25:16;;;;;;;15.88;3.78;;;;;;;9.99;100.00;99105.91;5024027;28;20032;-79
2022/10/17 03:27:42;;;;;;;11.30;2.55;;;;;;;9.94;100.00;99098.47;5008430;28;20503;-79
2022/10/17 03:30:08;;;;;;;8.45;1.85;;;;;;;9.85;100.00;99111.31;5005750;28;20038;-78
2022/10/17 03:32:34;;;;;;;7.68;1.42;;;;;;;9.79;100.00;99122.06;5010846;28;20102;-79
2022/10/17 03:35:00;;;;;;;13.90;2.60;;;;;;;9.62;100.00;99110.97;5004950;28;20121;-81
2022/10/17 03:37:25;;;;;;;5.22;1.48;;;;;;;9.52;100.00;99124.78;5025175;28;20112;-80
2022/10/17 03:39:51;;;;;;;7.78;2.38;;;;;;;9.45;100.00;99165.06;5026195;28;20057;-81
2022/10/17 03:42:16;;;;;;;10.77;3.13;;;;;;;9.51;100.00;99158.03;5005627;28;20045;-81
2022/10/17 03:44:42;;;;;;;11.63;2.72;;;;;;;9.62;100.00;99162.78;5011003;28;20042;-78
2022/10/17 03:47:11;;;;;;;6.78;1.95;;;;;;;9.54;100.00;99159.47;5003762;28;20060;-79
2022/10/17 03:49:37;;;;;;;9.40;2.13;;;;;;;9.72;100.00;99158.84;5004126;28;20033;-80
2022/10/17 03:52:03;;;;;;;12.90;3.28;;;;;;;9.65;100.00;99156.16;5039589;28;20061;-79
2022/10/17 03:54:28;;;;;;;8.95;1.80;;;;;;;9.65;100.00;99159.66;5013698;28;20029;-79
2022/10/17 03:56:54;;;;;;;11.23;1.80;;;;;;;9.72;100.00;99191.06;5012290;28;20041;-80
2022/10/17 03:59:20;;;;;;;7.32;2.33;;;;;;;9.69;100.00;99176.19;5005799;28;20113;-81
2022/10/17 04:01:45;;;;;;;7.70;2.30;;;;;;;9.87;100.00;99205.03;5000446;28;20037;-79
2022/10/17 04:04:11;;;;;;;2.65;0.98;;;;;;;9.81;100.00;99206.72;5027365;28;20040;-80
2022/10/17 04:06:37;;;;;;;8.60;1.45;;;;;;;9.75;100.00;99212.09;5001705;28;20048;-80
2022/10/17 04:09:04;;;;;;;5.07;1.73;;;;;;;9.75;100.00;99215.59;5019797;28;20029;-82
2022/10/17 04:11:30;;;;;;;5.45;2.13;;;;;;;9.69;100.00;99203.84;4999833;28;20029;-80
2022/10/17 04:13:56;;;;;;;4.35;1.38;;;;;;;9.68;100.00;99202.22;5026051;28;20076;-81
2022/10/17 04:16:22;;;;;;;7.47;1.80;;;;;;;9.68;100.00;99231.72;5004203;28;20514;-80
2022/10/17 04:18:53;;;;;;;5.93;1.50;;;;;;;9.77;100.00;99253.00;4992512;28;20052;-81
2022/10/17 04:21:18;;;;;;;7.72;1.90;;;;;;;9.77;100.00;99250.31;5001897;28;20025;-80
2022/10/17 04:23:44;;;;;;;8.90;1.80;;;;;;;9.79;100.00;99254.44;4996972;28;20102;-80
2022/10/17 04:26:10;;;;;;;8.13;2.35;;;;;;;9.68;100.00;99253.19;5025741;28;20025;-81
2022/10/17 04:28:35;;;;;;;8.43;2.03;;;;;;;9.89;100.00;99275.47;4993781;28;20037;-80
2022/10/17 04:31:06;;;;;;;8.77;1.65;;;;;;;9.89;100.00;99286.22;5006083;28;20095;-79
2022/10/17 04:33:33;;;;;;;7.00;1.55;;;;;;;9.86;100.00;99286.63;5025098;28;20387;-80
2022/10/17 04:36:00;;;;;;;7.05;1.80;;;;;;;9.84;100.00;99291.38;5012589;28;20033;-80
2022/10/17 04:38:26;;;;;;;8.23;2.05;;;;;;;9.91;100.00;99303.75;4994978;28;20034;-81
2022/10/17 04:40:52;;;;;;;6.07;1.48;;;;;;;9.94;100.00;99310.59;5002633;28;20025;-80
2022/10/17 04:43:18;;;;;;;9.55;1.73;;;;;;;9.80;100.00;99295.53;5007565;28;20033;-82
2022/10/17 04:45:44;;;;;;;12.27;3.22;;;;;;;10.05;100.00;99328.75;5000493;28;20624;-82
2022/10/17 04:48:10;;;;;;;6.10;1.45;;;;;;;10.06;100.00;99343.03;5035975;28;20117;-79
2022/10/17 04:50:35;;;;;;;9.25;2.42;;;;;;;10.05;100.00;99347.53;5012365;28;20068;-80
2022/10/17 04:53:01;;;;;;;11.05;3.03;;;;;;;10.11;100.00;99346.75;4989901;28;20037;-79
2022/10/17 04:55:26;;;;;;;11.57;2.78;;;;;;;10.14;100.00;99358.94;5028846;28;20041;-80
2022/10/17 04:57:52;;;;;;;11.02;2.25;;;;;;;10.21;100.00;99364.28;4993161;28;20034;-80
2022/10/17 05:00:17;;;;;;;12.00;3.38;;;;;;;10.29;100.00;99386.44;5006133;28;20030;-80
2022/10/17 05:02:43;;;;;;;9.48;2.75;;;;;;;10.37;100.00;99392.63;5020820;28;20033;-80
2022/10/17 05:05:09;;;;;;;3.95;1.15;;;;;;;10.33;100.00;99394.91;5007626;28;20399;-79
2022/10/17 05:07:34;;;;;;;8.35;2.35;;;;;;;10.28;100.00;99363.28;5025624;28;20467;-79
2022/10/17 05:10:00;;;;;;;6.45;1.58;;;;;;;10.21;100.00;99373.16;4985120;28;20131;-81
2022/10/17 05:12:26;;;;;;;7.45;2.10;;;;;;;10.44;100.00;99394.25;5005534;28;21637;-79
2022/10/17 05:14:51;;;;;;;7.25;1.58;;;;;;;10.41;100.00;99410.81;4995200;28;20041;-81
2022/10/17 05:17:17;;;;;;;5.00;1.10;;;;;;;10.45;100.00;99428.19;5027206;28;20037;-81
2022/10/17 05:19:42;;;;;;;6.07;1.48;;;;;;;10.42;100.00;99443.88;5018053;28;20499;-79
2022/10/17 05:22:08;;;;;;;9.93;2.33;;;;;;;10.29;100.00;99436.63;5005415;28;20034;-80
2022/10/17 05:24:34;;;;;;;5.97;1.98;;;;;;;10.00;100.00;99438.66;5053836;28;20096;-80
2022/10/17 05:26:59;;;;;;;4.32;1.33;;;;;;;9.86;100.00;99450.41;5013427;28;20076;-80
2022/10/17 05:29:25;;;;;;;8.20;1.77;;;;;;;9.91;100.00;99464.88;4987407;28;20030;-80
2022/10/17 05:31:50;;;;;;;7.10;1.52;;;;;;;9.85;100.00;99475.59;4989810;28;20043;-81
2022/10/17 05:34:16;;;;;;;10.07;1.38;;;;;;;9.78;100.00;99469.38;5009686;28;20029;-78
2022/10/17 05:36:42;;;;;;;7.07;1.92;;;;;;;9.91;100.00;99475.59;4989087;28;20041;-82
2022/10/17 05:39:07;;;;;;;6.82;1.92;;;;;;;9.91;100.00;99490.88;5021178;28;20035;-79
2022/10/17 05:41:33;;;;;;;9.35;1.73;;;;;;;9.69;100.00;99479.47;5023364;28;20135;-80
2022/10/17 05:43:59;;;;;;;3.63;1.45;;;;;;;9.56;100.00;99525.06;5007420;28;20029;-80
2022/10/17 05:46:25;;;;;;;4.78;1.25;;;;;;;9.43;100.00;99534.69;5010584;28;20060;-79
2022/10/17 05:48:52;;;;;;;3.70;1.20;;;;;;;9.35;100.00;99526.78;5010466;28;20036;-81
2022/10/17 05:51:17;;;;;;;6.57;1.50;;;;;;;9.25;100.00;99527.13;5019739;28;20155;-82
2022/10/17 05:53:43;;;;;;;12.50;1.92;;;;;;;9.29;100.00;99546.38;5020909;28;20116;-81
2022/10/17 05:56:11;;;;;;;8.70;2.40;;;;;;;9.36;100.00;99552.59;5022309;28;20029;-81
2022/10/17 05:58:40;;;;;;;11.63;2.15;;;;;;;9.41;100.00;99558.19;4993193;28;20048;-83
2022/10/17 06:01:06;;;;;;;7.90;2.58;;;;;;;9.43;100.00;99572.25;5006013;28;20386;-80
2022/10/17 06:03:32;;;;;;;7.93;2.38;;;;;;;9.35;100.00;99568.91;5006502;28;20029;-81
2022/10/17 06:06:06;;;;;;;7.55;2.20;;;;;;;9.36;100.00;99582.09;5008332;28;20029;-79
2022/10/17 06:08:32;;;;;;;10.18;2.25;;;;;;;9.35;100.00;99598.41;5022546;28;20036;-82
2022/10/17 06:10:57;;;;;;;5.90;1.80;;;;;;;9.42;100.00;99600.09;5006733;28;20041;-82
2022/10/17 06:13:23;;;;;;;9.45;2.50;;;;;;;9.33;100.00;99616.53;5009247;28;20029;-79
2022/10/17 06:15:49;;;;;;;9.48;2.00;;;;;;;9.14;100.00;99632.28;5017431;28;20435;-80
2022/10/17 06:18:14;;;;;;;8.40;1.90;;;;;;;8.96;100.00;99595.22;4996720;28;20076;-80
2022/10/17 06:20:40;;;;;;;8.95;2.05;;;;;;;8.79;100.00;99615.28;5008812;28;20041;-80
2022/10/17 06:23:05;;;;;;;9.75;1.85;;;;;;;8.92;100.00;99642.22;5009272;28;20467;-81
2022/10/17 06:25:32;;;;;;;11.40;2.38;;;;;;;9.02;100.00;99658.81;4982677;28;20056;-79
2022/10/17 06:27:58;;;;;;;10.75;3.03;;;;;;;9.04;100.00;99634.47;5000446;28;20324;-81
2022/10/17 06:30:24;;;;;;;9.63;1.80;;;;;;;9.18;100.00;99672.94;5009585;28;20064;-81
2022/10/17 06:32:52;;;;;;;13.02;2.47;;;;;;;9.03;100.00;99655.09;5025380;28;20025;-80
2022/10/17 06:35:18;;;;;;;5.32;1.70;;;;;;;9.19;100.00;99690.72;5004077;28;20560;-80
2022/10/17 06:37:44;;;;;;;13.15;2.53;;;;;;;9.08;100.00;99680.53;5018278;28;20607;-80
2022/10/17 06:40:11;;;;;;;8.95;2.00;;;;;;;9.07;100.00;99701.13;5010466;28;20040;-80
2022/10/17 06:42:37;;;;;;;13.95;2.17;;;;;;;8.93;100.00;99694.81;4989180;28;20176;-80
2022/10/17 06:45:04;;;;;;;8.88;1.63;;;;;;;8.95;100.00;99708.84;5001245;28;20955;-80
2022/10/17 06:47:30;;;;;;;12.23;2.42;;;;;;;9.06;100.00;99712.06;4986605;28;20081;-80
2022/10/17 06:49:58;;;;;;;9.05;2.45;;;;;;;9.14;100.00;99715.44;4984525;28;20125;-81
2022/10/17 06:52:24;;;;;;;9.90;1.88;;;;;;;9.25;100.00;99743.59;5024887;28;20124;-80
2022/10/17 06:54:50;;;;;;;9.30;2.30;;;;;;;9.25;100.00;99749.78;5010580;28;20057;-81
2022/10/17 06:57:16;;;;;;;6.03;2.33;;;;;;;8.79;100.00;99730.53;5024848;28;20029;-80
2022/10/17 06:59:42;;;;;;;18.17;2.00;;;;;;;8.80;100.00;99767.88;5003760;28;20048;-79
2022/10/17 07:02:11;;;;;;;16.50;2.22;;;;;;;8.74;100.00;99765.94;5004344;28;20042;-81
2022/10/17 07:04:37;;;;;;;11.07;2.35;;;;;;;8.76;100.00;99766.59;5018727;28;20513;-79
2022/10/17 07:07:03;;;;;;;8.95;2.25;;;;;;;8.68;100.00;99761.34;4989164;28;20070;-79
2022/10/17 07:09:30;;;;;;;10.25;2.22;;;;;;;8.77;100.00;99768.25;4992497;28;20459;-81
2022/10/17 07:11:55;;;;;;;15.07;3.50;;;;;;;8.94;100.00;99779.56;5008089;28;20041;-81
2022/10/17 07:14:21;;;;;;;10.38;2.58;;;;;;;9.00;100.00;99794.09;5017743;28;20026;-79
2022/10/17 07:16:47;;;;;;;10.95;2.22;;;;;;;9.02;100.00;99797.38;4985364;28;20068;-79
2022/10/17 07:19:12;;;;;;;9.00;2.17;;;;;;;8.83;100.00;99780.06;5000164;28;20041;-80
2022/10/17 07:21:38;;;;;;;12.25;2.97;;;;;;;9.05;100.00;99823.00;4992295;28;20463;-79
2022/10/17 07:24:05;;;;;;;11.38;2.40;;;;;;;9.25;100.00;99827.56;5006534;28;20411;-80
2022/10/17 07:26:31;;;;;;;9.45;2.35;;;;;;;9.21;100.00;99807.53;5033334;28;20026;-81
2022/10/17 07:28:57;;;;;;;7.65;2.03;;;;;;;9.49;100.00;99854.22;4997871;28;20411;-79
2022/10/17 07:31:22;;;;;;;7.97;1.23;;;;;;;9.48;100.00;99853.41;5026201;28;20034;-79
2022/10/17 07:33:49;;;;;;;4.65;1.48;;;;;;;9.34;100.00;99859.63;5007821;28;20447;-80
2022/10/17 07:36:15;;;;;;;4.82;1.70;;;;;;;9.22;100.00;99844.03;5011467;28;20064;-79
2022/10/17 07:38:41;;;;;;;7.55;1.70;;;;;;;9.32;100.00;99881.28;5008519;28;20504;-80
2022/10/17 07:41:08;;;;;;;4.70;1.27;;;;;;;9.35;100.00;99845.22;4990374;28;20029;-81
2022/10/17 07:43:35;;;;;;;11.15;2.15;;;;;;;9.68;100.00;99873.22;5020406;28;20037;-79
2022/10/17 07:46:02;;;;;;;8.93;1.65;;;;;;;9.88;100.00;99894.06;5026581;28;20037;-80
2022/10/17 07:48:29;;;;;;;12.75;2.17;;;;;;;9.86;100.00;99910.34;5001489;28;20399;-81
2022/10/17 07:50:55;;;;;;;6.70;1.48;;;;;;;9.89;100.00;99907.25;5000376;28;20033;-82
2022/10/17 07:53:20;;;;;;;5.70;1.83;;;;;;;9.84;100.00;99924.97;5025667;28;20064;-79
2022/10/17 07:55:48;;;;;;;7.15;1.40;;;;;;;9.62;100.00;99903.50;4998135;28;20501;-81
2022/10/17 07:58:14;;;;;;;12.20;2.08;;;;;;;9.96;100.00;99939.56;5008086;28;20052;-80
2022/10/17 08:00:40;;;;;;;11.45;2.40;;;;;;;10.22;100.00;99938.16;4996726;28;20029;-80
2022/10/17 08:03:05;;;;;;;7.47;1.95;;;;;;;10.34;100.00;99966.19;5017169;28;20087;-81
2022/10/17 08:05:32;;;;;;;6.03;1.50;;;;;;;10.60;100.00;99964.75;5022316;28;20495;-80
2022/10/17 08:07:57;;;;;;;8.77;1.63;;;;;;;10.83;100.00;99981.47;5023724;28;20072;-80
2022/10/17 08:10:26;;;;;;;9.60;2.20;;;;;;;10.92;100.00;99991.03;5029507;28;20056;-81
2022/10/17 08:12:56;;;;;;;9.23;2.22;;;;;;;11.01;100.00;100013.25;5004815;28;20036;-80
2022/10/17 08:15:23;;;;;;;23.30;2.22;;;;;;;11.47;100.00;100022.59;5012017;28;20030;-80
2022/10/17 08:17:49;;;;;;;7.30;2.03;;;;;;;11.68;100.00;100035.13;4999564;28;20082;-79
2022/10/17 08:20:15;;;;;;;7.82;2.45;;;;;;;12.15;100.00;100031.59;4985834;28;20034;-80
2022/10/17 08:22:42;;;;;;;9.85;2.80;;;;;;;12.59;98.84;100051.75;5004009;28;20622;-79
2022/10/17 08:25:08;;;;;;;6.30;1.85;;;;;;;13.61;92.18;100053.13;5008950;28;20112;-80
2022/10/17 08:27:34;;;;;;;9.68;1.85;;;;;;;13.46;88.71;100060.63;4999995;28;20357;-79
2022/10/17 08:30:00;;;;;;;9.18;2.00;;;;;;;14.29;82.64;100087.75;4998117;28;20037;-79
2022/10/17 08:32:28;;;;;;;4.32;1.40;;;;;;;15.17;74.95;100086.09;5005479;28;20553;-83
2022/10/17 08:34:54;;;;;;;7.90;1.92;;;;;;;14.72;75.80;100102.50;5011437;28;20033;-85
2022/10/17 08:37:23;;;;;;;8.95;1.65;;;;;;;15.87;71.39;100093.09;5031383;28;20026;-83
2022/10/17 08:39:49;;;;;;;14.68;2.08;;;;;;;15.77;69.39;100110.75;5013349;28;20033;-83
2022/10/17 08:42:54;;;;;;;6.65;1.83;;;;;;;14.48;72.75;100134.66;5009631;28;20049;-84
2022/10/17 08:45:34;;;;;;;6.90;1.40;;;;;;;13.39;78.33;100149.78;4985803;28;20132;-85
2022/10/17 08:48:01;;;;;;;5.50;1.45;;;;;;;12.86;82.37;100154.28;5011464;28;20068;-83
2022/10/17 08:50:44;;;;;;;6.60;1.05;;;;;;;12.60;84.89;100163.19;4997707;28;20376;-84
2022/10/17 08:53:24;;;;;;;5.47;1.70;;;;;;;13.54;80.34;100171.16;5007372;28;20289;-84
2022/10/17 08:55:52;;;;;;;10.73;2.60;;;;;;;15.60;69.68;100175.50;5011447;28;20033;-84
2022/10/17 08:58:28;;;;;;;8.73;2.70;;;;;;;16.75;64.09;100179.41;5011882;28;20034;-84
2022/10/17 09:01:24;;;;;;;7.68;2.03;;;;;;;17.59;58.44;100187.50;5009845;28;20117;-77
2022/10/17 09:03:57;;;;;;;8.25;2.47;;;;;;;16.25;63.11;100175.03;5028121;28;20076;-77
2022/10/17 09:06:36;;;;;;;5.23;1.00;;;;;;;15.50;66.29;100174.34;5008017;28;20100;-79
2022/10/17 09:09:26;;;;;;;8.13;2.17;;;;;;;16.45;64.22;100214.66;5054118;28;20026;-78
2022/10/17 09:11:55;;;;;;;7.25;1.77;;;;;;;17.88;59.47;100218.38;5039581;28;20036;-75
2022/10/17 09:14:33;;;;;;;6.75;2.63;;;;;;;18.86;54.26;100219.34;5009402;28;20033;-76
2022/10/17 09:17:09;;;;;;;9.18;2.25;;;;;;;19.26;53.23;100217.63;5017995;28;20069;-75
2022/10/17 09:19:42;;;;;;;5.20;1.50;;;;;;;18.54;52.97;100223.59;5005393;28;20125;-77
2022/10/17 09:22:09;;;;;;;;;;;;;;;17.99;55.97;100249.34;5031196;28;20090;-77
2022/10/17 09:24:51;;;;;;;3.78;1.65;;;;;;;18.83;52.98;100241.63;5009720;28;20336;-77
2022/10/17 09:27:45;;;;;;;7.00;2.25;;;;;;;19.40;51.81;100251.69;5005835;28;20480;-77
2022/10/17 09:30:47;;;;;;;10.60;2.20;;;;;;;18.01;55.32;100250.78;5023975;28;20445;-76
2022/10/17 09:33:19;;;;;;;8.63;2.03;;;;;;;19.53;51.82;100266.91;5007575;28;20044;-77
2022/10/17 09:35:45;;;;;;;6.88;1.83;;;;;;;19.68;51.28;100269.88;4987916;28;20102;-76
2022/10/17 09:38:15;;;;;;;8.88;2.38;;;;;;;18.90;53.80;100266.03;5003683;28;20033;-77
2022/10/17 09:40:47;;;;;;;4.40;1.58;;;;;;;19.66;51.61;100282.97;5027200;28;20094;-77
2022/10/17 09:43:14;;;;;;;3.85;1.83;;;;;;;20.71;47.94;100266.72;5007448;28;20512;-76
2022/10/17 09:46:29;;;;;;;7.45;1.83;;;;;;;20.38;49.06;100294.97;5012638;28;20411;-76
2022/10/17 09:49:00;;;;;;;7.78;1.98;;;;;;;20.77;48.20;100286.72;4991739;28;20045;-78
2022/10/17 09:51:26;;;;;;;6.18;2.03;;;;;;;21.04;46.24;100286.78;5027628;28;20533;-76
2022/10/17 09:54:16;;;;;;;6.55;1.73;;;;;;;21.08;45.94;100302.41;5009656;28;20045;-76
2022/10/17 09:57:00;;;;;;;5.20;2.10;;;;;;;21.22;45.93;100288.31;5027267;28;20026;-76
2022/10/17 09:59:37;;;;;;;7.50;2.20;;;;;;;21.74;44.29;100313.19;5031250;28;20088;-77
2022/10/17 10:02:12;;;;;;;3.78;1.55;;;;;;;21.99;44.09;100328.19;5023053;28;20112;-77
2022/10/17 10:04:56;;;;;;;5.63;1.88;;;;;;;21.33;43.87;100324.81;5009410;28;20060;-76
2022/10/17 10:07:26;;;;;;;8.68;2.53;;;;;;;20.90;46.19;100338.25;5024706;28;20033;-76
2022/10/17 10:09:52;;;;;;;6.38;1.10;;;;;;;20.31;47.70;100359.84;5005767;28;20029;-76
2022/10/17 10:12:22;;;;;;;6.88;1.50;;;;;;;17.47;54.83;100375.03;5019798;28;20456;-77
2022/10/17 10:14:48;;;;;;;7.28;1.42;;;;;;;16.06;60.97;100384.91;5028077;28;20487;-76
2022/10/17 10:17:32;;;;;;;6.35;1.85;;;;;;;16.05;61.89;100392.22;5020444;28;20577;-78
2022/10/17 10:19:58;;;;;;;4.90;1.67;;;;;;;14.82;66.05;100397.88;4999165;28;20097;-75
2022/10/17 10:22:24;;;;;;;7.75;2.08;;;;;;;13.73;71.51;100412.63;5041550;28;20140;-76
2022/10/17 10:25:14;;;;;;;9.20;1.38;;;;;;;13.28;75.67;100425.78;5013271;28;20037;-77
2022/10/17 10:27:41;;;;;;;3.42;1.25;;;;;;;13.56;76.09;100416.75;4995842;28;20022;-76
2022/10/17 10:30:20;;;;;;;10.80;1.77;;;;;;;15.10;70.18;100437.34;4994873;28;20124;-76
2022/10/17 10:32:47;;;;;;;4.35;1.45;;;;;;;18.05;58.25;100438.88;4990567;28;20029;-78
2022/10/17 10:35:42;;;;;;;2.78;1.42;;;;;;;20.74;47.79;100448.44;5027559;28;20038;-77
2022/10/17 10:38:14;;;;;;;4.10;1.50;;;;;;;21.41;46.49;100461.16;5004697;28;20045;-77
2022/10/17 10:40:46;;;;;;;3.83;1.60;;;;;;;22.68;42.65;100475.28;5023835;28;20022;-75
2022/10/17 10:43:38;;;;;;;6.20;1.40;;;;;;;21.44;44.04;100494.28;5018997;28;20476;-75
2022/10/17 10:46:27;;;;;;;5.63;1.58;;;;;;;20.20;46.09;100473.50;5029245;28;20176;-79
2022/10/17 10:49:00;;;;;;;8.52;1.73;;;;;;;19.80;48.46;100490.78;5039079;28;20037;-78
2022/10/17 10:51:41;;;;;;;3.83;1.17;;;;;;;19.64;49.56;100525.09;5024042;28;20042;-79
2022/10/17 10:54:19;;;;;;;5.38;1.20;;;;;;;19.13;51.53;100520.41;5009369;28;20045;-75
2022/10/17 10:56:54;;;;;;;7.97;1.60;;;;;;;17.71;56.16;100521.97;5028871;28;20049;-75
2022/10/17 10:59:25;;;;;;;3.50;1.00;;;;;;;17.80;56.64;100548.63;5009336;28;20040;-77
2022/10/17 11:02:20;;;;;;;4.05;1.15;;;;;;;17.78;56.44;100556.19;4994215;28;20380;-75
2022/10/17 11:05:00;;;;;;;4.35;1.15;;;;;;;19.63;51.48;100569.78;5006827;28;20045;-76
2022/10/17 11:07:31;;;;;;;3.63;1.20;;;;;;;20.17;50.30;100570.38;5008262;28;20476;-79
2022/10/17 11:10:16;;;;;;;7.18;1.73;;;;;;;21.89;46.09;100577.19;4990867;28;20034;-78
2022/10/17 11:12:57;;;;;;;5.68;1.38;;;;;;;21.20;45.56;100558.47;5045635;28;20029;-77
2022/10/17 11:15:46;;;;;;;4.32;1.45;;;;;;;20.41;47.45;100575.72;4996653;28;20072;-77
2022/10/17 11:18:43;;;;;;;4.93;1.48;;;;;;;18.25;53.26;100585.50;5041282;28;20036;-77
2022/10/17 11:21:16;;;;;;;28.08;3.10;;;;;;;18.11;54.70;100592.19;4989196;28;20525;-77
2022/10/17 11:23:41;;;;;;;3.38;1.58;;;;;;;17.84;55.10;100576.22;5010335;28;20491;-77
2022/10/17 11:26:15;;;;;;;5.68;1.60;;;;;;;16.32;60.44;100594.66;5013319;28;20053;-76
2022/10/17 11:28:41;;;;;;;6.35;1.45;;;;;;;15.00;65.92;100599.41;5031381;28;20029;-77
2022/10/17 11:31:12;;;;;;;3.90;1.33;;;;;;;14.66;67.36;100617.50;5012918;28;20342;-76
2022/10/17 11:33:44;;;;;;;8.68;1.50;;;;;;;14.45;67.15;100622.03;4997956;28;20368;-77
2022/10/17 11:36:11;;;;;;;5.03;1.88;;;;;;;14.25;68.24;100640.06;5007527;28;20044;-76
2022/10/17 11:39:18;;;;;;;4.80;1.15;;;;;;;14.27;69.29;100629.88;5024558;28;20362;-76
2022/10/17 11:41:48;;;;;;;10.90;1.80;;;;;;;14.51;68.85;100642.84;5006824;28;20069;-77
2022/10/17 11:44:17;;;;;;;4.60;1.48;;;;;;;14.58;69.23;100648.31;5003779;28;20387;-76
2022/10/17 11:46:45;;;;;;;3.53;1.58;;;;;;;14.76;69.12;100641.44;5029182;28;20061;-76